createdAt,value
2017-08-11T00:00:28.040Z,3.80
2017-08-11T00:02:56.290Z,4.90
2017-08-11T00:05:23.770Z,5.40
2017-08-11T00:07:52.022Z,5.47
2017-08-11T00:10:19.596Z,6.23
2017-08-11T00:12:47.866Z,5.87
2017-08-11T00:15:15.335Z,6.40
2017-08-11T00:17:43.585Z,5.27
2017-08-11T00:20:11.870Z,5.70
2017-08-11T00:22:39.417Z,5.37
2017-08-11T00:25:06.983Z,4.73
2017-08-11T00:27:34.452Z,5.00
2017-08-11T00:30:02.875Z,4.63
2017-08-11T00:32:30.384Z,4.60
2017-08-11T00:34:58.706Z,5.90
2017-08-11T00:37:26.223Z,5.20
2017-08-11T00:39:54.490Z,5.30
2017-08-11T00:42:21.980Z,5.50
2017-08-11T00:44:49.516Z,5.70
2017-08-11T00:47:17.746Z,5.00
2017-08-11T00:49:45.235Z,6.20
2017-08-11T00:52:12.699Z,5.03
2017-08-11T00:54:40.972Z,5.43
2017-08-11T00:57:08.526Z,5.43
2017-08-11T00:59:36.003Z,5.37
2017-08-11T01:02:04.236Z,5.30
2017-08-11T01:04:31.723Z,5.33
2017-08-11T01:06:59.980Z,5.83
2017-08-11T01:09:27.601Z,6.30
2017-08-11T01:11:55.095Z,5.90
2017-08-11T01:14:22.564Z,6.87
2017-08-11T01:16:50.121Z,6.57
2017-08-11T01:19:17.676Z,6.60
2017-08-11T01:21:45.248Z,6.23
2017-08-11T01:24:13.494Z,6.50
2017-08-11T01:26:40.971Z,8.07
2017-08-11T01:29:08.512Z,6.40
2017-08-11T01:31:36.087Z,7.30
2017-08-11T01:34:03.675Z,6.83
2017-08-11T01:36:31.914Z,7.00
2017-08-11T01:38:59.363Z,7.10
2017-08-11T01:41:26.925Z,7.10
2017-08-11T01:43:54.384Z,7.43
2017-08-11T01:46:21.867Z,7.67
2017-08-11T01:48:50.104Z,7.30
2017-08-11T01:51:17.582Z,8.00
2017-08-11T01:53:45.141Z,8.40
2017-08-11T01:56:12.704Z,7.87
2017-08-11T01:58:40.278Z,8.27
2017-08-11T02:01:08.614Z,8.70
2017-08-11T02:03:36.073Z,8.50
2017-08-11T02:06:03.559Z,9.00
2017-08-11T02:08:31.106Z,9.87
2017-08-11T02:10:58.663Z,7.93
2017-08-11T02:13:26.222Z,8.30
2017-08-11T02:15:53.793Z,9.40
2017-08-11T02:18:21.280Z,9.90
2017-08-11T02:20:48.763Z,8.90
2017-08-11T02:23:16.345Z,9.50
2017-08-11T02:25:43.826Z,10.40
2017-08-11T02:28:12.245Z,10.33
2017-08-11T02:30:39.741Z,10.83
2017-08-11T02:33:07.200Z,9.73
2017-08-11T02:35:34.793Z,10.67
2017-08-11T02:38:03.044Z,10.60
2017-08-11T02:40:31.313Z,10.30
2017-08-11T02:42:58.883Z,10.20
2017-08-11T02:45:26.364Z,9.73
2017-08-11T02:47:53.899Z,10.07
2017-08-11T02:50:22.134Z,11.90
2017-08-11T02:52:49.686Z,11.10
2017-08-11T02:55:17.216Z,10.80
2017-08-11T02:57:44.707Z,10.40
2017-08-11T03:00:12.201Z,10.70
2017-08-11T03:02:40.478Z,10.73
2017-08-11T03:05:08.083Z,10.87
2017-08-11T03:07:35.600Z,10.60
2017-08-11T03:10:03.835Z,11.77
2017-08-11T03:12:31.335Z,10.80
2017-08-11T03:14:59.620Z,10.43
2017-08-11T03:17:27.905Z,10.67
2017-08-11T03:19:55.388Z,11.37
2017-08-11T03:22:22.894Z,12.10
2017-08-11T03:24:51.157Z,10.83
2017-08-11T03:27:18.730Z,11.13
2017-08-11T03:29:47.015Z,12.00
2017-08-11T03:32:15.255Z,11.70
2017-08-11T03:34:42.751Z,11.30
2017-08-11T03:37:10.982Z,10.83
2017-08-11T03:39:38.557Z,12.70
2017-08-11T03:42:06.116Z,11.63
2017-08-11T03:44:33.577Z,11.37
2017-08-11T03:47:01.047Z,12.80
2017-08-11T03:49:29.292Z,10.67
2017-08-11T03:51:56.774Z,12.73
2017-08-11T03:54:24.372Z,12.90
2017-08-11T03:56:51.859Z,13.80
2017-08-11T03:59:19.338Z,13.17
2017-08-11T04:01:46.916Z,13.47
2017-08-11T04:04:15.170Z,13.83
2017-08-11T04:06:42.738Z,15.10
2017-08-11T04:09:10.294Z,14.93
2017-08-11T04:11:37.880Z,13.70
2017-08-11T04:14:05.415Z,12.97
2017-08-11T04:16:32.883Z,13.40
2017-08-11T04:19:01.164Z,13.70
2017-08-11T04:21:28.653Z,13.53
2017-08-11T04:23:56.174Z,14.20
2017-08-11T04:26:24.431Z,14.20
2017-08-11T04:28:51.949Z,13.70
2017-08-11T04:31:19.448Z,15.23
2017-08-11T04:33:46.920Z,13.70
2017-08-11T04:36:15.200Z,14.10
2017-08-11T04:38:43.468Z,13.90
2017-08-11T04:41:11.701Z,14.40
2017-08-11T04:43:39.174Z,13.50
2017-08-11T04:46:06.671Z,14.77
2017-08-11T04:48:34.196Z,13.53
2017-08-11T04:51:01.679Z,14.10
2017-08-11T04:53:29.943Z,14.83
2017-08-11T04:55:58.223Z,14.50
2017-08-11T04:58:26.461Z,13.53
2017-08-11T05:00:53.971Z,14.33
2017-08-11T05:03:21.556Z,15.43
2017-08-11T05:05:49.063Z,14.47
2017-08-11T05:08:16.529Z,13.93
2017-08-11T05:10:44.804Z,14.47
2017-08-11T05:13:13.024Z,13.47
2017-08-11T05:15:40.527Z,14.70
2017-08-11T05:18:08.133Z,14.70
2017-08-11T05:20:35.646Z,13.63
2017-08-11T05:23:03.921Z,13.13
2017-08-11T05:25:32.243Z,14.50
2017-08-11T05:27:59.755Z,15.00
2017-08-11T05:30:27.360Z,13.87
2017-08-11T05:32:54.875Z,14.23
2017-08-11T05:35:23.120Z,13.63
2017-08-11T05:37:50.752Z,16.90
2017-08-11T05:40:18.213Z,15.73
2017-08-11T05:42:45.678Z,14.20
2017-08-11T05:45:13.173Z,14.13
2017-08-11T05:47:40.650Z,15.03
2017-08-11T05:50:08.937Z,14.07
2017-08-11T05:52:36.443Z,15.17
2017-08-11T05:55:03.928Z,12.67
2017-08-11T05:57:32.197Z,14.50
2017-08-11T05:59:59.664Z,14.70
2017-08-11T06:02:27.980Z,14.40
2017-08-11T06:04:55.491Z,14.50
2017-08-11T06:07:23.042Z,16.37
2017-08-11T06:09:50.510Z,14.27
2017-08-11T06:12:18.749Z,16.30
2017-08-11T06:14:46.228Z,15.63
2017-08-11T06:17:14.500Z,15.87
2017-08-11T06:19:42.056Z,16.23
2017-08-11T06:22:09.547Z,15.30
2017-08-11T06:24:37.785Z,15.20
2017-08-11T06:27:05.354Z,14.97
2017-08-11T06:29:32.920Z,14.93
2017-08-11T06:32:00.495Z,15.07
2017-08-11T06:34:28.759Z,15.27
2017-08-11T06:36:56.304Z,17.27
2017-08-11T06:39:23.885Z,14.97
2017-08-11T06:41:52.154Z,16.97
2017-08-11T06:44:20.414Z,15.17
2017-08-11T06:46:48.710Z,14.47
2017-08-11T06:49:16.962Z,17.23
2017-08-11T06:51:44.548Z,17.67
2017-08-11T06:54:12.820Z,15.50
2017-08-11T06:56:41.123Z,17.63
2017-08-11T06:59:08.595Z,16.63
2017-08-11T07:01:36.130Z,17.13
2017-08-11T07:04:03.624Z,18.57
2017-08-11T07:06:31.138Z,17.60
2017-08-11T07:08:58.678Z,17.60
2017-08-11T07:11:26.983Z,18.80
2017-08-11T07:13:54.458Z,16.23
2017-08-11T07:16:22.014Z,17.10
2017-08-11T07:18:49.534Z,17.87
2017-08-11T07:21:17.807Z,18.80
2017-08-11T07:23:46.029Z,18.10
2017-08-11T07:26:13.545Z,18.87
2017-08-11T07:28:41.855Z,18.00
2017-08-11T07:31:09.326Z,18.60
2017-08-11T07:33:36.800Z,19.97
2017-08-11T07:36:04.515Z,18.33
2017-08-11T07:38:32.149Z,19.63
2017-08-11T07:41:00.428Z,18.90
2017-08-11T07:43:29.691Z,21.17
2017-08-11T07:45:57.184Z,20.40
2017-08-11T07:48:25.555Z,19.90
2017-08-11T07:50:53.110Z,20.30
2017-08-11T07:53:20.569Z,19.87
2017-08-11T07:55:48.892Z,20.70
2017-08-11T07:58:16.352Z,21.47
2017-08-11T08:00:43.855Z,21.17
2017-08-11T08:03:11.406Z,21.60
2017-08-11T08:05:38.976Z,21.97
2017-08-11T08:08:07.247Z,24.27
2017-08-11T08:10:34.808Z,21.27
2017-08-11T08:13:02.330Z,21.93
2017-08-11T08:15:29.798Z,23.80
2017-08-11T08:17:57.264Z,23.80
2017-08-11T08:20:24.837Z,22.40
2017-08-11T08:22:52.428Z,22.20
2017-08-11T08:25:20.004Z,19.93
2017-08-11T08:27:47.561Z,20.80
2017-08-11T08:30:15.035Z,21.40
2017-08-11T08:32:42.525Z,20.47
2017-08-11T08:35:10.092Z,22.47
2017-08-11T08:37:38.340Z,18.10
2017-08-11T08:40:05.832Z,20.43
2017-08-11T08:42:34.071Z,17.87
2017-08-11T08:45:01.547Z,18.67
2017-08-11T08:47:29.014Z,19.33
2017-08-11T08:49:57.333Z,20.50
2017-08-11T08:52:24.890Z,21.03
2017-08-11T08:54:52.366Z,17.93
2017-08-11T08:57:19.847Z,18.00
2017-08-11T08:59:47.326Z,17.97
2017-08-11T09:02:15.980Z,18.40
2017-08-11T09:04:43.608Z,16.10
2017-08-11T09:07:11.094Z,16.00
2017-08-11T09:09:38.576Z,16.07
2017-08-11T09:12:06.896Z,15.37
2017-08-11T09:14:34.428Z,15.13
2017-08-11T09:17:02.666Z,16.60
2017-08-11T09:19:30.246Z,16.27
2017-08-11T09:21:57.803Z,18.10
2017-08-11T09:24:38.054Z,19.33
2017-08-11T09:27:17.387Z,18.77
2017-08-11T09:29:56.817Z,21.10
2017-08-11T09:32:36.272Z,18.77
2017-08-11T09:35:16.466Z,20.10
2017-08-11T09:37:43.957Z,17.70
2017-08-11T09:40:11.484Z,17.30
2017-08-11T09:42:38.985Z,17.30
2017-08-11T09:45:06.464Z,15.97
2017-08-11T09:47:34.709Z,16.60
2017-08-11T09:50:02.288Z,17.70
2017-08-11T09:52:29.776Z,15.13
2017-08-11T09:54:57.306Z,17.77
2017-08-11T09:57:25.621Z,16.90
2017-08-11T09:59:53.146Z,16.83
2017-08-11T10:02:21.386Z,18.77
2017-08-11T10:04:49.096Z,19.27
2017-08-11T10:07:16.552Z,16.80
2017-08-11T10:09:44.053Z,14.70
2017-08-11T10:12:11.528Z,14.37
2017-08-11T10:14:39.014Z,15.30
2017-08-11T10:17:07.245Z,13.87
2017-08-11T10:19:34.764Z,12.87
2017-08-11T10:22:02.248Z,11.37
2017-08-11T10:24:29.739Z,12.50
2017-08-11T10:26:57.223Z,12.80
2017-08-11T10:29:25.581Z,12.77
2017-08-11T10:31:53.058Z,11.90
2017-08-11T10:34:21.292Z,11.27
2017-08-11T10:36:48.762Z,12.03
2017-08-11T10:39:16.225Z,12.07
2017-08-11T10:41:44.507Z,10.30
2017-08-11T10:44:12.744Z,9.50
2017-08-11T10:46:40.279Z,10.17
2017-08-11T10:49:07.757Z,9.90
2017-08-11T10:51:35.356Z,11.10
2017-08-11T10:54:03.613Z,11.90
2017-08-11T10:56:31.074Z,11.53
2017-08-11T10:58:58.626Z,10.80
2017-08-11T11:01:26.201Z,11.27
2017-08-11T11:03:53.669Z,11.70
2017-08-11T11:06:21.936Z,11.20
2017-08-11T11:08:50.201Z,9.63
2017-08-11T11:11:17.683Z,11.90
2017-08-11T11:13:45.160Z,11.10
2017-08-11T11:16:12.645Z,10.33
2017-08-11T11:18:40.122Z,10.70
2017-08-11T11:21:07.685Z,10.00
2017-08-11T11:23:35.162Z,10.27
2017-08-11T11:26:03.425Z,10.87
2017-08-11T11:28:31.752Z,9.80
2017-08-11T11:30:59.256Z,8.77
2017-08-11T11:33:26.741Z,11.67
2017-08-11T11:35:54.227Z,11.60
2017-08-11T11:38:21.711Z,10.73
2017-08-11T11:40:49.290Z,11.80
2017-08-11T11:43:17.558Z,10.80
2017-08-11T11:45:45.132Z,14.27
2017-08-11T11:48:13.379Z,13.17
2017-08-11T11:50:40.963Z,11.50
2017-08-11T11:53:09.248Z,11.40
2017-08-11T11:55:37.541Z,11.00
2017-08-11T11:58:05.039Z,12.20
2017-08-11T12:00:32.657Z,13.60
2017-08-11T12:03:00.183Z,13.73
2017-08-11T12:05:27.671Z,11.43
2017-08-11T12:07:55.182Z,10.73
2017-08-11T12:10:22.788Z,12.17
2017-08-11T12:12:50.263Z,11.80
2017-08-11T12:15:17.752Z,11.90
2017-08-11T12:17:45.223Z,11.07
2017-08-11T12:20:13.626Z,11.90
2017-08-11T12:22:42.000Z,13.00
2017-08-11T12:25:10.254Z,12.90
2017-08-11T12:27:37.812Z,11.77
2017-08-11T12:30:05.393Z,11.70
2017-08-11T12:32:33.663Z,11.53
2017-08-11T12:35:01.940Z,11.90
2017-08-11T12:37:30.319Z,11.57
2017-08-11T12:39:58.591Z,10.90
2017-08-11T12:42:26.878Z,10.60
2017-08-11T12:44:55.140Z,10.70
2017-08-11T12:47:23.408Z,10.20
2017-08-11T12:49:50.957Z,9.20
2017-08-11T12:52:18.444Z,11.23
2017-08-11T12:54:46.685Z,9.07
2017-08-11T12:57:14.151Z,9.80
2017-08-11T12:59:41.635Z,9.17
2017-08-11T13:02:09.896Z,10.43
2017-08-11T13:04:38.125Z,8.53
2017-08-11T13:07:05.640Z,9.20
2017-08-11T13:09:33.946Z,10.13
2017-08-11T13:12:01.421Z,9.40
2017-08-11T13:14:28.911Z,9.40
2017-08-11T13:16:56.466Z,9.40
2017-08-11T13:19:23.957Z,8.80
2017-08-11T13:21:51.434Z,9.37
2017-08-11T13:24:18.944Z,9.10
2017-08-11T13:26:46.400Z,8.20
2017-08-11T13:29:14.688Z,8.80
2017-08-11T13:31:42.960Z,9.17
2017-08-11T13:34:10.456Z,7.80
2017-08-11T13:36:37.978Z,8.10
2017-08-11T13:39:05.529Z,8.27
2017-08-11T13:41:33.841Z,7.97
2017-08-11T13:44:01.354Z,8.83
2017-08-11T13:46:28.818Z,7.80
2017-08-11T13:48:57.091Z,12.53
2017-08-11T13:51:25.923Z,8.60
2017-08-11T13:53:53.389Z,9.47
2017-08-11T13:56:20.887Z,8.67
2017-08-11T13:58:48.599Z,9.87
2017-08-11T14:01:16.056Z,10.03
2017-08-11T14:03:43.589Z,9.10
2017-08-11T14:06:11.854Z,9.03
2017-08-11T14:08:40.123Z,10.50
2017-08-11T14:11:08.397Z,9.47
2017-08-11T14:13:36.630Z,9.97
2017-08-11T14:16:04.104Z,11.23
2017-08-11T14:18:31.579Z,8.97
2017-08-11T14:20:59.071Z,10.70
2017-08-11T14:23:32.332Z,10.47
2017-08-11T14:25:59.829Z,11.90
2017-08-11T14:28:27.348Z,11.57
2017-08-11T14:30:55.590Z,11.80
2017-08-11T14:33:23.078Z,10.17
2017-08-11T14:35:51.331Z,11.70
2017-08-11T14:38:18.857Z,11.57
2017-08-11T14:40:46.357Z,12.50
2017-08-11T14:43:13.840Z,11.33
2017-08-11T14:45:42.069Z,11.10
2017-08-11T14:48:09.572Z,11.70
2017-08-11T14:50:37.823Z,11.77
2017-08-11T14:53:05.388Z,10.73
2017-08-11T14:55:32.874Z,12.30
2017-08-11T14:58:00.351Z,12.17
2017-08-11T15:00:27.861Z,11.60
2017-08-11T15:02:55.479Z,12.30
2017-08-11T15:05:22.983Z,13.50
2017-08-11T15:07:51.246Z,12.90
2017-08-11T15:10:18.734Z,13.43
2017-08-11T15:12:46.983Z,13.03
2017-08-11T15:15:14.451Z,13.80
2017-08-11T15:17:42.711Z,15.80
2017-08-11T15:20:10.198Z,16.10
2017-08-11T15:22:37.674Z,16.23
2017-08-11T15:25:05.146Z,14.57
2017-08-11T15:27:32.627Z,12.43
2017-08-11T15:30:00.102Z,12.70
2017-08-11T15:32:27.667Z,13.17
2017-08-11T15:34:55.933Z,13.00
2017-08-11T15:37:23.426Z,11.40
2017-08-11T15:39:50.956Z,13.50
2017-08-11T15:42:19.182Z,12.57
2017-08-11T15:47:20.675Z,11.53
2017-08-11T15:49:48.222Z,12.40
2017-08-11T15:52:16.087Z,10.57
2017-08-11T15:54:43.625Z,13.17
2017-08-11T15:57:11.090Z,12.17
2017-08-11T15:59:38.595Z,12.17
2017-08-11T16:02:06.081Z,12.40
2017-08-11T16:04:33.574Z,12.93
2017-08-11T16:07:01.054Z,12.07
2017-08-11T16:09:28.572Z,13.97
2017-08-11T16:11:56.084Z,13.67
2017-08-11T16:14:24.362Z,14.90
2017-08-11T16:16:52.610Z,15.50
2017-08-11T16:19:20.098Z,14.37
2017-08-11T16:21:48.362Z,15.10
2017-08-11T16:24:16.608Z,14.30
2017-08-11T16:26:44.084Z,15.60
2017-08-11T16:29:11.563Z,16.00
2017-08-11T16:31:39.829Z,14.97
2017-08-11T16:34:08.108Z,16.17
2017-08-11T16:36:36.390Z,16.83
2017-08-11T16:39:04.664Z,15.03
2017-08-11T16:41:32.933Z,15.20
2017-08-11T16:44:01.309Z,16.27
2017-08-11T16:46:29.654Z,14.47
2017-08-11T16:48:57.130Z,14.40
2017-08-11T16:51:24.604Z,14.97
2017-08-11T16:53:52.879Z,13.57
2017-08-11T16:56:21.156Z,12.93
2017-08-11T16:58:49.474Z,13.53
2017-08-11T17:01:17.004Z,12.93
2017-08-11T17:03:44.499Z,12.53
2017-08-11T17:06:11.998Z,12.10
2017-08-11T17:08:40.249Z,12.70
2017-08-11T17:11:07.734Z,12.50
2017-08-11T17:13:36.089Z,13.23
2017-08-11T17:16:04.396Z,11.90
2017-08-11T17:18:31.895Z,11.33
2017-08-11T17:20:59.360Z,11.23
2017-08-11T17:23:26.868Z,12.60
2017-08-11T17:25:55.119Z,10.87
2017-08-11T17:28:22.613Z,10.50
2017-08-11T17:30:50.577Z,10.73
2017-08-11T17:33:18.068Z,10.57
2017-08-11T17:35:45.591Z,10.77
2017-08-11T17:38:13.119Z,10.93
2017-08-11T17:40:40.595Z,10.47
2017-08-11T17:43:08.845Z,11.40
2017-08-11T17:45:36.351Z,12.73
2017-08-11T17:48:03.837Z,9.93
2017-08-11T17:50:31.318Z,11.90
2017-08-11T17:52:58.811Z,10.27
2017-08-11T17:55:26.289Z,10.77
2017-08-11T17:57:53.791Z,11.30
2017-08-11T18:00:21.366Z,12.10
2017-08-11T18:02:49.632Z,11.00
2017-08-11T18:05:17.107Z,12.33
2017-08-11T18:07:45.358Z,11.10
2017-08-11T18:10:12.823Z,11.37
2017-08-11T18:12:41.082Z,12.37
2017-08-11T18:15:08.560Z,11.40
2017-08-11T18:17:36.820Z,12.40
2017-08-11T18:20:04.391Z,13.07
2017-08-11T18:22:32.652Z,12.00
2017-08-11T18:25:00.140Z,12.90
2017-08-11T18:27:28.394Z,12.60
2017-08-11T18:29:55.884Z,13.43
2017-08-11T18:32:23.375Z,11.53
2017-08-11T18:34:50.844Z,12.40
2017-08-11T18:37:18.335Z,12.20
2017-08-11T18:39:46.646Z,11.40
2017-08-11T18:42:14.120Z,12.50
2017-08-11T18:44:41.584Z,11.73
2017-08-11T18:47:09.041Z,9.83
2017-08-11T18:49:36.522Z,12.50
2017-08-11T18:52:04.005Z,12.00
2017-08-11T18:54:32.270Z,12.43
2017-08-11T18:57:00.523Z,12.77
2017-08-11T18:59:28.103Z,13.13
2017-08-11T19:01:56.354Z,13.50
2017-08-11T19:04:23.851Z,11.90
2017-08-11T19:06:51.331Z,12.07
2017-08-11T19:09:18.793Z,12.80
2017-08-11T19:11:46.283Z,14.70
2017-08-11T19:14:13.900Z,11.83
2017-08-11T19:16:41.378Z,12.77
2017-08-11T19:19:08.868Z,12.13
2017-08-11T19:21:36.436Z,14.15
2017-08-11T19:24:04.685Z,13.00
2017-08-11T19:26:32.187Z,12.77
2017-08-11T19:28:59.725Z,13.53
2017-08-11T19:31:27.285Z,14.30
2017-08-11T19:33:55.530Z,15.27
2017-08-11T19:36:23.145Z,13.80
2017-08-11T19:38:50.650Z,13.23
2017-08-11T19:41:18.279Z,12.63
2017-08-11T19:43:45.748Z,12.70
2017-08-11T19:46:13.248Z,13.53
2017-08-11T19:48:41.531Z,12.97
2017-08-11T19:51:09.862Z,13.77
2017-08-11T19:53:37.334Z,14.10
2017-08-11T19:56:04.829Z,13.77
2017-08-11T19:58:33.087Z,13.77
2017-08-11T20:01:01.319Z,15.17
2017-08-11T20:03:28.864Z,11.80
2017-08-11T20:05:56.317Z,13.13
2017-08-11T20:08:23.874Z,13.00
2017-08-11T20:10:51.420Z,14.30
2017-08-11T20:13:18.949Z,13.60
2017-08-11T20:15:46.514Z,11.20
2017-08-11T20:18:14.799Z,12.87
2017-08-11T20:20:43.092Z,12.27
2017-08-11T20:23:10.563Z,11.80
2017-08-11T20:25:38.060Z,12.00
2017-08-11T20:28:05.543Z,12.90
2017-08-11T20:30:33.802Z,12.43
2017-08-11T20:33:01.458Z,12.60
2017-08-11T20:35:28.933Z,12.27
2017-08-11T20:37:57.216Z,12.17
2017-08-11T20:40:25.573Z,12.23
2017-08-11T20:42:53.130Z,11.50
2017-08-11T20:45:21.388Z,12.60
2017-08-11T20:47:48.975Z,12.10
2017-08-11T20:50:17.221Z,10.73
2017-08-11T20:52:44.706Z,11.20
2017-08-11T20:55:12.988Z,11.00
2017-08-11T20:57:41.229Z,12.77
2017-08-11T21:00:08.705Z,12.27
2017-08-11T21:02:36.304Z,12.13
2017-08-11T21:05:03.842Z,11.63
2017-08-11T21:07:32.077Z,12.13
2017-08-11T21:09:59.565Z,11.70
2017-08-11T21:12:27.881Z,12.33
2017-08-11T21:15:01.382Z,12.20
2017-08-11T21:17:28.877Z,12.83
2017-08-11T21:19:56.456Z,11.20
2017-08-11T21:22:24.708Z,11.23
2017-08-11T21:24:52.290Z,10.60
2017-08-11T21:27:20.580Z,10.67
2017-08-11T21:29:48.068Z,10.70
2017-08-11T21:32:15.565Z,10.63
2017-08-11T21:34:43.086Z,11.20
2017-08-11T21:37:10.571Z,12.40
2017-08-11T21:39:38.093Z,10.80
2017-08-11T21:42:05.558Z,11.13
2017-08-11T21:44:33.073Z,11.30
2017-08-11T21:47:01.344Z,11.53
2017-08-11T21:49:29.600Z,10.57
2017-08-11T21:51:57.086Z,12.33
2017-08-11T21:54:25.332Z,10.23
2017-08-11T21:56:52.912Z,12.87
2017-08-11T21:59:21.162Z,12.63
2017-08-11T22:01:48.681Z,10.30
2017-08-11T22:04:16.149Z,11.90
2017-08-11T22:06:43.696Z,11.30
2017-08-11T22:09:11.223Z,11.50
2017-08-11T22:11:39.490Z,10.30
2017-08-11T22:14:07.807Z,11.93
2017-08-11T22:16:35.366Z,10.37
2017-08-11T22:19:03.095Z,11.77
2017-08-11T22:21:31.350Z,10.93
2017-08-11T22:23:58.849Z,10.07
2017-08-11T22:26:26.385Z,10.67
2017-08-11T22:28:54.643Z,9.80
2017-08-11T22:31:22.216Z,10.27
2017-08-11T22:33:50.477Z,8.70
2017-08-11T22:36:17.954Z,9.53
2017-08-11T22:38:46.221Z,8.37
2017-08-11T22:41:14.501Z,9.83
2017-08-11T22:43:42.776Z,8.90
2017-08-11T22:46:11.016Z,10.13
2017-08-11T22:48:38.508Z,9.00
2017-08-11T22:51:06.818Z,10.23
2017-08-11T22:53:34.286Z,8.43
2017-08-11T22:56:01.800Z,7.80
2017-08-11T22:58:30.061Z,8.43
2017-08-11T23:00:57.539Z,7.77
2017-08-11T23:03:25.902Z,7.67
2017-08-11T23:05:54.123Z,8.13
2017-08-11T23:08:21.681Z,7.80
2017-08-11T23:10:49.166Z,7.13
2017-08-11T23:13:16.654Z,6.03
2017-08-11T23:15:44.917Z,6.30
2017-08-11T23:18:12.373Z,5.40
2017-08-11T23:20:39.856Z,5.87
2017-08-11T23:23:07.380Z,5.30
2017-08-11T23:25:34.853Z,5.73
2017-08-11T23:28:03.224Z,5.30
2017-08-11T23:30:30.735Z,5.27
2017-08-11T23:32:58.220Z,3.93
2017-08-11T23:35:25.787Z,3.73
2017-08-11T23:37:53.272Z,3.63
2017-08-11T23:40:21.521Z,3.13
2017-08-11T23:42:49.102Z,2.27
2017-08-11T23:45:17.354Z,1.80
2017-08-11T23:47:44.913Z,1.73
2017-08-11T23:50:12.374Z,1.40
2017-08-11T23:52:39.956Z,1.33
2017-08-11T23:55:08.234Z,1.20
2017-08-11T23:57:35.731Z,1.30
